Skip Navigation LinksHome page > Weather > Current weather Skip Navigation Links

Current Weather

New Tokyo International (Narita), Tokyo

For information only: do not use for flight planning or navigation.
Latest weather
Observation time Friday, February 21, 2020 5:00 PM JST
Local time Friday, February 21, 2020 5:25 PM JST
Flight conditions Low Instrument Meteorological Conditions
Winds
Wind direction Southeast (140°)
Wind speed 9 mph
Visibility 6.2 mi.
Sky condition
Ceiling 0 ft. broken clouds
Cloud layer broken clouds 0 ft.
Cloud layer few clouds 4,000 ft.
Temperature 50°F
Dewpoint 36°F
Altimeter 30.50 in.Hg
Derived measurements
Relative humidity 58%
Wind chill 46°F
Density altitude -1012 ft.
Remarks
No significant changes expected in the next two hours.
METAR RJAA 210800Z 14008KT 9999 FEW040 BKN/// 10/02 Q1033 NOSIG RMK 1CU040 A3051

Settings

Location code

InnerDrive.Weather 4.0.6770.0 Release CLR 4.0.30319.42000
Copyright ©2018 Inner Drive Technology. All rights reserved. Portions Copyright ©1986-2018 David Braverman.

Find weather

Site navigation


Skip Navigation Links

Place info

Page info

PayPal - The safer, easier way to pay online!

Return home.

Copyright ©2020 Inner Drive Technology. Purveyors of fine, hand-crafted computer software. Page printed 2020-02-21T08:25:11 UTC.